Long Island, Virginia
Current Conditions -  °F | °C
As of 5:15 PM on Saturday 25 Oct 2014 (Local Time) from K0V4 Reporting Station
Clear Clear  
Wind Chill: 73°   Ceiling: Unl
Heat Index: 73°   Visibility: 10mi
Dew Point: 48°   Wind: 7mph
Humidity: 42%   Direction: 220°SW
Pressure: 29.86"   Gusts: NA
Location:  37.08°N, 79.1°W
Report Text: K0V4 252115Z AUTO 22006KT 10SM CLR 23/09 A2986 RMK AO1 T02250088
Loading
Personal Weather Stations






























Interactive Weather Map
Tropical Storm Tracking
New forecast layout! Learn more

10-Day Weather Forecast

Advertisements
Track Severe Weather on mobile